CheckWX is a tool to help pilots better visualize weather data.  It is not intended as a substitute for an official pre-flight weather briefing.

04:27:38 UTC

KOAK TAF
Metropolitan Oakland International Airport
Oakland, California, USA
KOAK 022323Z 0300/0406 29014KT P6SM SKC FM030300 30008KT P6SM SCT015 FM030500 26005KT P6SM BKN012 FM031200 27006KT P6SM OVC012 FM031800 28010KT P6SM FEW015 FM032100 28013KT P6SM SKC FM040300 28010KT P6SM FEW015

Jul-3@
00:00 UTC

Jul-3 @ 00:00 UTC

Jul-3@
03:00 UTC

Jul-3 @ 03:00 UTC

TAF KOAK 022323Z 0300/0406 29014KT P6SM SKC

Expired

Wind
  • 290° at 14 KTS
Cloud Levels
  • Clear skies

Jul-3@
03:00 UTC

Jul-3 @ 03:00 UTC

Jul-3@
05:00 UTC

Jul-3 @ 05:00 UTC

FM030300 30008KT P6SM SCT015

Expired

Wind
  • 300° at 8 KTS
Cloud Levels
  • Scattered at 1,500' AGL

Jul-3@
05:00 UTC

Jul-3 @ 05:00 UTC

Jul-3@
12:00 UTC

Jul-3 @ 12:00 UTC

FM030500 26005KT P6SM BKN012

Expired

Wind
  • 260° at 5 KTS
Cloud Levels
  • Broken at 1,200' AGL

Jul-3@
12:00 UTC

Jul-3 @ 12:00 UTC

Jul-3@
18:00 UTC

Jul-3 @ 18:00 UTC

FM031200 27006KT P6SM OVC012

Expired

Wind
  • 270° at 6 KTS
Cloud Levels
  • Overcast at 1,200' AGL

Jul-3@
18:00 UTC

Jul-3 @ 18:00 UTC

Jul-3@
21:00 UTC

Jul-3 @ 21:00 UTC

FM031800 28010KT P6SM FEW015

Expired

Wind
  • 280° at 10 KTS
Cloud Levels
  • Few at 1,500' AGL

Jul-3@
21:00 UTC

Jul-3 @ 21:00 UTC

Jul-4@
03:00 UTC

Jul-4 @ 03:00 UTC

FM032100 28013KT P6SM SKC

Expired

Wind
  • 280° at 13 KTS
Cloud Levels
  • Clear skies

Jul-4@
03:00 UTC

Jul-4 @ 03:00 UTC

Jul-4@
06:00 UTC

Jul-4 @ 06:00 UTC

FM040300 28010KT P6SM FEW015

From

From Standard forecast or significant change

Wind
  • 280° at 10 KTS
Cloud Levels
  • Few at 1,500' AGL